Time;durP1;ratioP1;P1;durP2;ratioP2;P2;SDS_P1;SDS_P2;PMS_P1;PMS_P2;Temp;Humidity;BMP_temperature;BMP_pressure;BME280_temperature;BME280_humidity;BME280_pressure;Samples;Min_cycle;Max_cycle;Signal;HPM_P1;HPM_P2
2023/08/15 00:01:43;;;;;;;8.40;6.60;;;22.40;99.90;;;;;;4997129;28;20458;-53
2023/08/15 00:04:09;;;;;;;10.82;7.18;;;22.40;99.90;;;;;;4996808;28;20461;-56
2023/08/15 00:06:35;;;;;;;10.40;6.70;;;22.40;99.90;;;;;;4996725;28;20516;-53
2023/08/15 00:09:00;;;;;;;12.25;7.53;;;22.40;99.90;;;;;;4996430;28;20490;-53
2023/08/15 00:11:26;;;;;;;10.57;7.20;;;22.40;99.90;;;;;;4996802;28;20418;-53
2023/08/15 00:13:55;;;;;;;11.07;6.80;;;22.40;99.90;;;;;;4996735;28;20541;-50
2023/08/15 00:16:21;;;;;;;9.40;6.80;;;22.50;99.90;;;;;;4996143;28;20562;-50
2023/08/15 00:18:47;;;;;;;10.43;6.72;;;22.40;99.90;;;;;;4996339;28;20038;-51
2023/08/15 00:21:13;;;;;;;10.52;6.65;;;22.40;99.90;;;;;;4996215;28;20037;-54
2023/08/15 00:23:38;;;;;;;8.70;6.75;;;22.40;99.90;;;;;;4996252;28;20085;-53
2023/08/15 00:26:04;;;;;;;7.47;6.45;;;22.40;99.90;;;;;;4996336;28;20058;-54
2023/08/15 00:28:30;;;;;;;7.85;6.40;;;22.40;99.90;;;;;;4994474;28;20494;-53
2023/08/15 00:30:56;;;;;;;7.20;6.43;;;22.30;99.90;;;;;;4996250;28;20038;-51
2023/08/15 00:33:21;;;;;;;9.52;6.53;;;22.40;99.90;;;;;;4996423;28;20038;-54
2023/08/15 00:35:47;;;;;;;11.00;6.60;;;22.30;99.90;;;;;;4996551;28;20485;-53
2023/08/15 00:38:13;;;;;;;7.65;6.60;;;22.30;99.90;;;;;;4994175;28;20169;-53
2023/08/15 00:40:39;;;;;;;10.32;6.53;;;22.30;99.90;;;;;;4996348;28;20446;-53
2023/08/15 00:43:05;;;;;;;11.95;6.82;;;22.30;99.90;;;;;;4993996;28;20047;-54
2023/08/15 00:45:35;;;;;;;8.27;6.22;;;22.30;99.90;;;;;;4996561;28;20393;-54
2023/08/15 00:48:01;;;;;;;10.50;6.80;;;22.30;99.90;;;;;;4994802;28;20053;-54
2023/08/15 00:50:27;;;;;;;12.27;6.32;;;22.30;99.90;;;;;;4995144;28;20038;-55
2023/08/15 00:52:54;;;;;;;9.25;7.10;;;22.30;99.90;;;;;;4995232;28;20037;-52
2023/08/15 00:55:20;;;;;;;8.80;6.38;;;22.30;99.90;;;;;;4995220;28;20040;-52
2023/08/15 00:57:46;;;;;;;8.82;6.93;;;22.30;99.90;;;;;;4996161;28;20045;-57
2023/08/15 01:00:13;;;;;;;12.32;6.95;;;22.20;99.90;;;;;;4995536;28;20113;-53
2023/08/15 01:02:39;;;;;;;12.52;7.35;;;22.20;99.90;;;;;;4977447;28;20437;-55
2023/08/15 01:05:05;;;;;;;7.32;6.10;;;22.20;99.90;;;;;;4995291;28;20041;-52
2023/08/15 01:07:31;;;;;;;7.53;6.70;;;22.10;99.90;;;;;;4977045;28;20074;-53
2023/08/15 01:09:57;;;;;;;9.60;7.78;;;22.10;99.90;;;;;;4995663;28;20076;-52
2023/08/15 01:12:36;;;;;;;8.73;7.13;;;22.00;99.90;;;;;;4993604;28;20038;-51
2023/08/15 01:15:06;;;;;;;9.60;7.13;;;21.90;99.90;;;;;;4995386;28;20026;-53
2023/08/15 01:17:35;;;;;;;9.90;6.80;;;;;;;;;;5009530;28;20113;-51
2023/08/15 01:20:04;;;;;;;8.15;7.07;;;;;;;;;;4995528;28;20035;-52
2023/08/15 01:22:34;;;;;;;8.10;7.30;;;21.70;99.90;;;;;;4995334;28;20031;-50
2023/08/15 01:25:00;;;;;;;7.72;6.88;;;;;;;;;;4993086;28;20108;-53
2023/08/15 01:27:26;;;;;;;9.65;6.95;;;21.80;99.90;;;;;;4995351;28;20031;-54
2023/08/15 01:29:52;;;;;;;7.43;6.72;;;21.70;99.90;;;;;;4995216;28;20552;-51
2023/08/15 01:32:34;;;;;;;10.10;6.60;;;21.80;99.90;;;;;;4994925;28;20113;-57
2023/08/15 01:35:15;;;;;;;10.98;7.00;;;21.80;99.90;;;;;;4994904;28;20034;-52
2023/08/15 01:37:44;;;;;;;11.37;7.53;;;21.70;99.90;;;;;;4995066;28;20504;-56
2023/08/15 01:40:14;;;;;;;9.40;7.20;;;21.80;99.90;;;;;;4994807;28;20034;-57
2023/08/15 01:42:41;;;;;;;7.32;6.45;;;21.70;99.90;;;;;;4995071;28;20038;-48
2023/08/15 01:45:08;;;;;;;11.40;7.32;;;21.80;99.90;;;;;;4994812;28;20109;-56
2023/08/15 01:47:34;;;;;;;7.60;6.80;;;21.80;99.90;;;;;;5009320;28;20053;-53
2023/08/15 01:50:00;;;;;;;7.78;6.65;;;21.70;99.90;;;;;;4994646;28;20054;-52
2023/08/15 01:52:26;;;;;;;9.55;7.07;;;21.70;99.90;;;;;;4995320;28;20073;-54
2023/08/15 01:54:52;;;;;;;8.50;6.60;;;21.70;99.90;;;;;;5009338;28;20490;-51
2023/08/15 01:57:17;;;;;;;8.07;7.28;;;21.60;99.90;;;;;;4994940;28;20038;-52
2023/08/15 01:59:43;;;;;;;8.73;7.40;;;21.60;99.90;;;;;;4994704;28;20450;-53
2023/08/15 02:02:10;;;;;;;9.98;7.05;;;21.50;99.90;;;;;;4994011;28;20561;-56
2023/08/15 02:04:36;;;;;;;7.30;6.60;;;21.50;99.90;;;;;;4992754;28;20042;-53
2023/08/15 02:07:02;;;;;;;9.02;7.40;;;21.40;99.90;;;;;;4994836;28;20390;-53
2023/08/15 02:09:28;;;;;;;8.05;7.25;;;21.30;99.90;;;;;;4994207;28;20105;-52
2023/08/15 02:11:54;;;;;;;10.57;7.00;;;;;;;;;;5009045;28;20049;-53
2023/08/15 02:14:20;;;;;;;10.27;7.68;;;21.30;99.90;;;;;;5008767;28;20041;-52
2023/08/15 02:16:45;;;;;;;9.65;6.97;;;21.30;99.90;;;;;;4994542;28;20038;-56
2023/08/15 02:19:12;;;;;;;13.52;7.85;;;21.10;99.90;;;;;;4992344;28;20046;-52
2023/08/15 02:21:38;;;;;;;8.25;7.45;;;21.20;99.90;;;;;;4994328;28;20034;-52
2023/08/15 02:24:04;;;;;;;13.45;7.82;;;21.20;99.90;;;;;;4992308;28;20057;-53
2023/08/15 02:26:29;;;;;;;9.90;7.30;;;21.30;99.90;;;;;;4992443;28;20050;-53
2023/08/15 02:28:55;;;;;;;10.20;7.97;;;21.30;99.90;;;;;;4994203;28;20113;-52
2023/08/15 02:31:21;;;;;;;12.65;7.63;;;21.30;99.90;;;;;;4993932;28;20394;-53
2023/08/15 02:33:47;;;;;;;9.43;6.85;;;21.30;99.90;;;;;;5008686;28;20042;-56
2023/08/15 02:36:13;;;;;;;10.88;7.88;;;21.30;99.90;;;;;;4994189;28;20041;-52
2023/08/15 02:38:39;;;;;;;9.82;7.28;;;21.10;99.90;;;;;;4993896;28;20422;-54
2023/08/15 02:41:04;;;;;;;11.80;7.30;;;21.10;99.90;;;;;;4994335;28;20045;-51
2023/08/15 02:43:30;;;;;;;7.97;6.65;;;21.20;99.90;;;;;;4993977;28;20046;-51
2023/08/15 02:45:56;;;;;;;10.65;8.15;;;21.20;99.90;;;;;;4993948;28;20046;-54
2023/08/15 02:48:22;;;;;;;8.95;7.25;;;21.20;99.90;;;;;;4994207;28;20066;-52
2023/08/15 02:50:47;;;;;;;12.52;7.55;;;21.20;99.90;;;;;;4994469;28;20031;-54
2023/08/15 02:53:13;;;;;;;9.68;7.90;;;21.10;99.90;;;;;;4993719;28;20038;-52
2023/08/15 02:55:39;;;;;;;9.82;7.30;;;21.10;99.90;;;;;;4993920;28;20042;-55
2023/08/15 02:58:06;;;;;;;8.65;7.75;;;21.00;99.90;;;;;;4993787;28;20138;-50
2023/08/15 03:00:35;;;;;;;10.95;7.47;;;21.60;99.90;;;;;;4994126;28;20121;-56
2023/08/15 03:03:00;;;;;;;10.02;7.47;;;21.00;99.90;;;;;;4993648;28;20049;-52
2023/08/15 03:05:26;;;;;;;11.90;7.82;;;20.90;99.90;;;;;;4993676;28;20039;-52
2023/08/15 03:07:52;;;;;;;10.98;8.18;;;21.00;99.90;;;;;;4993695;28;20054;-55
2023/08/15 03:10:18;;;;;;;9.82;8.02;;;21.00;99.90;;;;;;4993840;28;20390;-57
2023/08/15 03:12:44;;;;;;;11.90;8.45;;;20.90;99.90;;;;;;4993649;28;20030;-55
2023/08/15 03:15:10;;;;;;;11.57;8.25;;;;;;;;;;5005157;28;20043;-52
2023/08/15 03:17:35;;;;;;;21.92;8.93;;;20.80;99.90;;;;;;4996045;28;20030;-50
2023/08/15 03:20:01;;;;;;;11.02;7.78;;;20.70;99.90;;;;;;4997696;28;20032;-54
2023/08/15 03:22:27;;;;;;;15.50;8.70;;;20.70;99.90;;;;;;4979280;28;20045;-54
2023/08/15 03:24:53;;;;;;;16.17;8.27;;;20.70;99.90;;;;;;4987451;28;20042;-52
2023/08/15 03:27:18;;;;;;;18.27;9.35;;;20.80;99.90;;;;;;4996858;28;20401;-55
2023/08/15 03:29:44;;;;;;;9.65;7.85;;;20.80;99.90;;;;;;4995813;28;20089;-57
2023/08/15 03:32:10;;;;;;;14.07;8.80;;;20.90;99.90;;;;;;5012002;28;20031;-57
2023/08/15 03:34:36;;;;;;;12.13;8.20;;;20.80;99.90;;;;;;4997698;28;20034;-55
2023/08/15 03:37:01;;;;;;;13.02;7.57;;;20.90;99.90;;;;;;4995475;28;20426;-55
2023/08/15 03:39:27;;;;;;;12.75;7.80;;;20.90;99.90;;;;;;4997328;28;20074;-52
2023/08/15 03:41:53;;;;;;;13.63;8.02;;;20.80;99.90;;;;;;4995432;28;20030;-53
2023/08/15 03:44:19;;;;;;;12.48;7.80;;;20.80;99.90;;;;;;4994458;28;20422;-51
2023/08/15 03:46:45;;;;;;;11.40;7.90;;;20.70;99.90;;;;;;4997538;28;20113;-56
2023/08/15 03:49:11;;;;;;;13.18;7.70;;;20.60;99.90;;;;;;4997584;28;20069;-52
2023/08/15 03:51:37;;;;;;;9.18;7.53;;;20.60;99.90;;;;;;4997825;28;20072;-55
2023/08/15 03:54:03;;;;;;;12.50;8.82;;;20.60;99.90;;;;;;4995244;28;20034;-52
2023/08/15 03:56:28;;;;;;;11.77;8.80;;;20.60;99.90;;;;;;4995316;28;20470;-52
2023/08/15 03:58:54;;;;;;;13.80;9.40;;;20.60;99.90;;;;;;4997020;28;20026;-52
2023/08/15 04:01:20;;;;;;;12.65;8.80;;;;;;;;;;4996849;28;20037;-53
2023/08/15 04:03:53;;;;;;;14.50;9.48;;;;;;;;;;4991764;28;20038;-54
2023/08/15 04:06:20;;;;;;;11.98;10.38;;;;;;;;;;4995642;28;20027;-55
2023/08/15 04:08:45;;;;;;;12.73;9.93;;;20.40;99.90;;;;;;4996395;28;20065;-52
2023/08/15 04:11:11;;;;;;;21.27;10.63;;;20.40;99.90;;;;;;5027981;28;20402;-54
2023/08/15 04:13:37;;;;;;;13.52;9.98;;;20.50;99.90;;;;;;4996385;28;20034;-57
2023/08/15 04:16:03;;;;;;;13.35;9.57;;;20.70;99.90;;;;;;4994364;28;20045;-57
2023/08/15 04:18:28;;;;;;;15.63;9.18;;;20.80;99.90;;;;;;4977884;28;20038;-52
2023/08/15 04:20:54;;;;;;;17.95;9.77;;;20.70;99.90;;;;;;4993926;28;20034;-56
2023/08/15 04:23:20;;;;;;;14.82;9.80;;;20.60;99.90;;;;;;4996333;28;20045;-56
2023/08/15 04:25:46;;;;;;;14.85;10.52;;;20.70;99.90;;;;;;4995784;28;20034;-52
2023/08/15 04:28:11;;;;;;;14.55;9.63;;;20.90;99.90;;;;;;4994639;28;20085;-55
2023/08/15 04:30:38;;;;;;;16.73;10.38;;;;;;;;;;4985375;28;20115;-50
2023/08/15 04:33:04;;;;;;;14.80;11.10;;;;;;;;;;5009929;28;20062;-54
2023/08/15 04:35:30;;;;;;;18.65;10.82;;;;;;;;;;5007869;28;20133;-52
2023/08/15 04:37:56;;;;;;;20.95;10.70;;;21.50;99.90;;;;;;4993107;28;20391;-52
2023/08/15 04:40:40;;;;;;;14.98;10.95;;;21.50;99.90;;;;;;4975343;28;20069;-52
2023/08/15 04:43:07;;;;;;;19.67;11.27;;;21.60;99.90;;;;;;4993990;28;20482;-52
2023/08/15 04:45:33;;;;;;;18.13;11.50;;;21.80;99.90;;;;;;4995101;28;20445;-52
2023/08/15 04:47:59;;;;;;;17.52;10.75;;;21.90;99.90;;;;;;4995394;28;20030;-56
2023/08/15 04:50:25;;;;;;;14.75;11.30;;;22.00;99.90;;;;;;4994817;28;20418;-53
2023/08/15 04:52:51;;;;;;;17.77;11.52;;;22.10;99.90;;;;;;4994759;28;20030;-52
2023/08/15 04:55:17;;;;;;;16.67;10.85;;;22.10;99.90;;;;;;5006186;28;20450;-54
2023/08/15 04:57:43;;;;;;;18.00;11.13;;;22.20;99.90;;;;;;4995512;28;20018;-53
2023/08/15 05:00:11;;;;;;;15.65;10.70;;;22.30;99.90;;;;;;5009608;28;20117;-55
2023/08/15 05:02:37;;;;;;;11.55;10.40;;;22.10;99.90;;;;;;4974743;28;20122;-55
2023/08/15 05:05:05;;;;;;;19.35;14.43;;;22.20;99.90;;;;;;4995212;28;20482;-56
2023/08/15 05:07:32;;;;;;;24.17;17.05;;;22.20;99.90;;;;;;4995185;28;20065;-56
2023/08/15 05:09:58;;;;;;;18.83;16.92;;;22.40;99.90;;;;;;5009813;28;20049;-55
2023/08/15 05:12:24;;;;;;;17.52;14.10;;;22.60;99.90;;;;;;4994274;28;20081;-51
2023/08/15 05:14:50;;;;;;;15.65;13.57;;;22.70;99.90;;;;;;4975284;28;20042;-56
2023/08/15 05:17:15;;;;;;;18.88;14.57;;;22.90;99.90;;;;;;4991884;28;20069;-54
2023/08/15 05:19:41;;;;;;;23.98;16.73;;;22.70;99.90;;;;;;4993818;28;20121;-51
2023/08/15 05:22:07;;;;;;;22.52;16.08;;;22.50;99.90;;;;;;4993422;28;20038;-59
2023/08/15 05:24:32;;;;;;;19.58;15.55;;;22.30;99.90;;;;;;4993780;28;20034;-55
2023/08/15 05:26:58;;;;;;;17.80;13.30;;;22.30;99.90;;;;;;4994066;28;20022;-55
2023/08/15 05:29:24;;;;;;;21.17;14.68;;;22.30;99.90;;;;;;5007954;28;20069;-54
2023/08/15 05:31:51;;;;;;;20.75;14.30;;;22.30;99.90;;;;;;5007732;28;20035;-57
2023/08/15 05:34:16;;;;;;;18.80;14.48;;;22.30;99.90;;;;;;4975773;28;20042;-59
2023/08/15 05:36:42;;;;;;;20.83;13.82;;;22.40;99.90;;;;;;4993308;28;20497;-52
2023/08/15 05:39:08;;;;;;;17.50;13.98;;;22.60;99.90;;;;;;4993711;28;20034;-52
2023/08/15 05:41:34;;;;;;;14.75;13.25;;;22.70;99.90;;;;;;4993907;28;20030;-53
2023/08/15 05:44:00;;;;;;;21.38;13.98;;;;;;;;;;4993712;28;20038;-52
2023/08/15 05:46:26;;;;;;;18.58;13.25;;;;;;;;;;4993905;28;20084;-55
2023/08/15 05:48:51;;;;;;;18.83;14.20;;;23.20;99.90;;;;;;4993657;28;20022;-57
2023/08/15 05:51:17;;;;;;;21.15;13.68;;;23.30;99.90;;;;;;4993663;28;20356;-57
2023/08/15 05:53:43;;;;;;;20.77;14.35;;;23.50;99.90;;;;;;4993512;28;20029;-51
2023/08/15 05:56:08;;;;;;;25.13;14.80;;;23.50;99.90;;;;;;4991334;28;20054;-51
2023/08/15 05:58:35;;;;;;;15.93;13.25;;;;;;;;;;4993615;28;20097;-50
2023/08/15 06:01:01;;;;;;;18.58;13.30;;;;;;;;;;4993421;28;20026;-52
2023/08/15 06:03:27;;;;;;;19.85;14.60;;;23.90;99.90;;;;;;4993397;28;20109;-49
2023/08/15 06:05:55;;;;;;;20.67;13.73;;;;;;;;;;4993295;28;20550;-57
2023/08/15 06:08:21;;;;;;;19.45;13.18;;;23.90;99.90;;;;;;4993299;28;20113;-56
2023/08/15 06:11:15;;;;;;;16.95;12.25;;;24.10;99.90;;;;;;4973304;28;20451;-61
2023/08/15 06:13:41;;;;;;;16.42;12.48;;;24.00;99.90;;;;;;4972564;28;20041;-53
2023/08/15 06:16:07;;;;;;;14.30;12.48;;;;;;;;;;4974130;28;20031;-55
2023/08/15 06:18:33;;;;;;;13.90;11.85;;;;;;;;;;4971695;28;20035;-54
2023/08/15 06:20:59;;;;;;;14.73;10.75;;;24.20;99.90;;;;;;4971700;28;20038;-53
2023/08/15 06:23:24;;;;;;;14.40;11.35;;;24.00;99.90;;;;;;4973700;28;20039;-55
2023/08/15 06:25:50;;;;;;;12.32;11.02;;;24.10;99.90;;;;;;4987821;28;20135;-57
2023/08/15 06:28:18;;;;;;;12.63;10.38;;;;;;;;;;4973702;28;20542;-50
2023/08/15 06:30:44;;;;;;;11.35;10.15;;;25.90;99.90;;;;;;4987476;28;20049;-53
2023/08/15 06:33:09;;;;;;;15.05;11.23;;;24.60;99.90;;;;;;4971388;28;20043;-58
2023/08/15 06:35:35;;;;;;;10.52;9.23;;;24.70;99.90;;;;;;4988554;28;20061;-53
2023/08/15 06:38:01;;;;;;;10.43;9.20;;;24.70;99.90;;;;;;4974940;28;20070;-59
2023/08/15 06:40:27;;;;;;;16.02;10.18;;;24.80;99.90;;;;;;4988973;28;20043;-55
2023/08/15 06:42:52;;;;;;;11.15;8.60;;;24.80;99.90;;;;;;4988845;28;20126;-58
2023/08/15 06:45:19;;;;;;;13.13;8.88;;;24.90;99.90;;;;;;4988838;28;20046;-53
2023/08/15 06:47:45;;;;;;;12.55;9.35;;;24.70;99.90;;;;;;4974794;28;20042;-52
2023/08/15 06:50:11;;;;;;;12.13;8.73;;;24.60;99.90;;;;;;4974558;28;20363;-56
2023/08/15 06:52:37;;;;;;;11.32;9.35;;;24.70;99.90;;;;;;4972907;28;20042;-53
2023/08/15 06:55:03;;;;;;;11.43;8.48;;;24.70;99.90;;;;;;4974480;28;20027;-59
2023/08/15 06:57:33;;;;;;;16.92;8.88;;;24.80;99.90;;;;;;4988836;28;20047;-56
2023/08/15 06:59:59;;;;;;;10.27;9.10;;;24.80;99.90;;;;;;4998806;28;20039;-52
2023/08/15 07:02:25;;;;;;;14.10;8.70;;;24.90;99.90;;;;;;4985614;28;20038;-57
2023/08/15 07:04:51;;;;;;;8.73;7.38;;;24.70;99.90;;;;;;4993100;28;20038;-56
2023/08/15 07:07:17;;;;;;;10.32;7.75;;;24.60;99.90;;;;;;4993325;28;20045;-49
2023/08/15 07:09:45;;;;;;;11.95;7.38;;;24.60;99.90;;;;;;4992933;28;20034;-56
2023/08/15 07:12:10;;;;;;;9.45;7.97;;;24.70;99.90;;;;;;4992897;28;20035;-50
2023/08/15 07:14:37;;;;;;;12.23;7.20;;;;;;;;;;5007108;28;20045;-50
2023/08/15 07:17:03;;;;;;;11.30;6.90;;;;;;;;;;4991044;28;20034;-53
2023/08/15 07:19:29;;;;;;;10.43;6.95;;;;;;;;;;4993147;28;20072;-52
2023/08/15 07:21:55;;;;;;;10.55;7.47;;;;;;;;;;4993882;28;20037;-52
2023/08/15 07:24:21;;;;;;;9.32;7.05;;;25.50;99.90;;;;;;4993501;28;20108;-50
2023/08/15 07:26:47;;;;;;;11.35;7.07;;;;;;;;;;4993186;28;20101;-50
2023/08/15 07:29:13;;;;;;;9.20;7.30;;;;;;;;;;4992592;28;20031;-50
2023/08/15 07:31:39;;;;;;;10.00;6.38;;;26.00;99.90;;;;;;4992859;28;20068;-48
2023/08/15 07:34:05;;;;;;;12.38;6.55;;;;;;;;;;4992990;28;20050;-50
2023/08/15 07:36:31;;;;;;;10.52;7.10;;;;;;;;;;5007343;28;20437;-50
2023/08/15 07:38:57;;;;;;;11.20;6.68;;;27.00;99.90;;;;;;4991540;28;20404;-49
2023/08/15 07:41:23;;;;;;;28.35;17.73;;;27.00;99.90;;;;;;4992592;28;20029;-48
2023/08/15 07:43:49;;;;;;;10.07;8.10;;;27.10;99.90;;;;;;4992809;28;20027;-49
2023/08/15 07:46:15;;;;;;;10.40;7.25;;;;;;;;;;4985133;28;20031;-50
2023/08/15 07:48:42;;;;;;;23.00;12.32;;;;;;;;;;4978255;28;20046;-49
2023/08/15 07:51:09;;;;;;;29.48;15.95;;;;;;;;;;4990020;28;20043;-51
2023/08/15 07:53:34;;;;;;;27.30;14.73;;;27.60;99.90;;;;;;4992610;28;20458;-52
2023/08/15 07:56:00;;;;;;;14.45;9.90;;;;;;;;;;4992664;28;20098;-57
2023/08/15 07:58:27;;;;;;;179.15;85.35;;;;;;;;;;4993043;28;20022;-52
2023/08/15 08:00:52;;;;;;;18.75;12.73;;;27.90;99.90;;;;;;4993354;28;20089;-50
2023/08/15 08:03:19;;;;;;;17.65;9.82;;;;;;;;;;4996192;28;20394;-49
2023/08/15 08:05:45;;;;;;;46.53;26.08;;;28.10;99.90;;;;;;4977808;28;20047;-49
2023/08/15 08:08:13;;;;;;;16.25;8.52;;;;;;;;;;4991592;28;20065;-51
2023/08/15 08:10:39;;;;;;;10.75;7.38;;;28.40;99.90;;;;;;4996341;28;20030;-47
2023/08/15 08:13:06;;;;;;;12.85;7.78;;;28.30;99.90;;;;;;4993427;28;20105;-48
2023/08/15 08:15:32;;;;;;;13.52;7.20;;;;;;;;;;4976781;28;20046;-49
2023/08/15 08:17:58;;;;;;;47.13;25.08;;;;;;;;;;4996051;28;20037;-51
2023/08/15 08:20:25;;;;;;;17.35;11.18;;;28.80;99.90;;;;;;4996218;28;20062;-53
2023/08/15 08:22:51;;;;;;;9.70;6.43;;;;;;;;;;4996043;28;20470;-52
2023/08/15 08:25:19;;;;;;;10.65;6.72;;;29.00;99.90;;;;;;4996208;28;20031;-52
2023/08/15 08:27:46;;;;;;;8.10;6.50;;;28.90;99.90;;;;;;4994498;28;20038;-50
2023/08/15 08:30:20;;;;;;;10.02;5.95;;;28.90;99.90;;;;;;4996114;28;20470;-53
2023/08/15 08:32:46;;;;;;;14.43;6.22;;;29.10;99.90;;;;;;4989282;28;20046;-51
2023/08/15 08:35:16;;;;;;;10.23;6.57;;;28.90;99.90;;;;;;4974212;28;20467;-51
2023/08/15 08:37:43;;;;;;;11.05;5.13;;;29.10;99.90;;;;;;4975676;28;20031;-54
2023/08/15 08:40:10;;;;;;;7.47;5.38;;;29.50;99.90;;;;;;4976851;28;20462;-52
2023/08/15 08:42:36;;;;;;;11.43;5.75;;;;;;;;;;4958184;28;20043;-52
2023/08/15 08:45:03;;;;;;;12.93;6.13;;;29.70;99.90;;;;;;4974551;28;20046;-51
2023/08/15 08:47:30;;;;;;;8.20;5.03;;;;;;;;;;4993697;28;20497;-51
2023/08/15 08:49:59;;;;;;;7.90;5.35;;;;;;;;;;4983439;28;20038;-52
2023/08/15 08:52:25;;;;;;;8.77;5.50;;;;;;;;;;4987167;28;20422;-50
2023/08/15 08:54:51;;;;;;;6.80;5.03;;;;;;;;;;4993597;28;20073;-52
2023/08/15 08:57:19;;;;;;;8.85;5.30;;;30.30;99.90;;;;;;4993503;28;20043;-54
2023/08/15 08:59:46;;;;;;;9.27;6.40;;;;;;;;;;4993736;28;20446;-52
2023/08/15 09:02:19;;;;;;;9.77;5.47;;;;;;;;;;4993396;28;20096;-52
2023/08/15 09:04:46;;;;;;;7.30;4.68;;;30.90;99.90;;;;;;4993557;28;20042;-53
2023/08/15 09:07:11;;;;;;;7.93;4.53;;;30.80;99.90;;;;;;4993348;28;20414;-53
2023/08/15 09:09:37;;;;;;;11.88;4.22;;;30.80;99.90;;;;;;4976678;28;20050;-52
2023/08/15 09:12:06;;;;;;;5.93;3.13;;;30.00;99.90;;;;;;4992459;28;20040;-50
2023/08/15 09:14:31;;;;;;;8.48;5.30;;;29.80;99.90;;;;;;4989460;28;20089;-50
2023/08/15 09:16:57;;;;;;;7.78;3.83;;;30.00;99.90;;;;;;4993430;28;20026;-51
2023/08/15 09:19:23;;;;;;;7.55;4.15;;;30.10;99.90;;;;;;4995217;28;20027;-53
2023/08/15 09:21:49;;;;;;;5.07;3.28;;;30.40;99.90;;;;;;4995326;28;20030;-52
2023/08/15 09:24:14;;;;;;;8.75;4.63;;;30.30;99.90;;;;;;5009498;28;20125;-51
2023/08/15 09:26:40;;;;;;;8.07;4.30;;;30.10;99.90;;;;;;4994685;28;20026;-50
2023/08/15 09:29:06;;;;;;;4.68;3.53;;;30.30;99.90;;;;;;4995380;28;20030;-53
2023/08/15 09:31:32;;;;;;;7.53;4.00;;;;;;;;;;5009835;28;20043;-52
2023/08/15 09:33:58;;;;;;;9.25;4.65;;;30.40;99.90;;;;;;4995030;28;20026;-52
2023/08/15 09:36:24;;;;;;;8.30;4.03;;;;;;;;;;4994931;28;20494;-51
2023/08/15 09:38:52;;;;;;;7.53;4.57;;;;;;;;;;4994776;28;20049;-50
2023/08/15 09:41:18;;;;;;;6.22;4.50;;;31.20;99.90;;;;;;4995043;28;20034;-50
2023/08/15 09:43:51;;;;;;;4.82;3.85;;;31.10;99.50;;;;;;4992399;28;20049;-51
2023/08/15 09:46:21;;;;;;;4.97;3.08;;;31.10;99.50;;;;;;5023135;28;20116;-51
2023/08/15 09:48:48;;;;;;;7.50;3.58;;;30.70;99.40;;;;;;4970436;28;20035;-52
2023/08/15 09:51:15;;;;;;;8.02;4.18;;;30.90;99.90;;;;;;4993384;28;20030;-49
2023/08/15 09:53:46;;;;;;;6.60;4.05;;;31.00;99.30;;;;;;4991356;28;20031;-50
2023/08/15 09:56:13;;;;;;;7.38;2.85;;;31.10;99.00;;;;;;4993195;28;20034;-51
2023/08/15 09:58:39;;;;;;;7.65;3.65;;;30.90;98.10;;;;;;4991373;28;20081;-52
2023/08/15 10:01:09;;;;;;;8.57;3.40;;;31.10;98.00;;;;;;4993574;28;20485;-52
2023/08/15 10:03:36;;;;;;;16.00;3.97;;;31.00;97.10;;;;;;4994635;28;20039;-49
2023/08/15 10:06:05;;;;;;;15.48;3.88;;;31.00;95.70;;;;;;4994061;28;20101;-50
2023/08/15 10:08:31;;;;;;;12.90;3.05;;;31.00;95.50;;;;;;4993202;28;20522;-48
2023/08/15 10:10:58;;;;;;;17.67;4.15;;;;;;;;;;4993754;28;20037;-52
2023/08/15 10:13:36;;;;;;;10.95;3.47;;;31.30;99.90;;;;;;4993219;28;20113;-52
2023/08/15 10:16:04;;;;;;;10.48;2.97;;;31.20;95.80;;;;;;4989490;28;20026;-50
2023/08/15 10:18:33;;;;;;;11.07;3.53;;;30.80;95.70;;;;;;4994102;28;20037;-53
2023/08/15 10:21:00;;;;;;;17.92;2.83;;;30.90;96.20;;;;;;4994182;28;20033;-54
2023/08/15 10:23:34;;;;;;;4.50;2.28;;;30.70;95.90;;;;;;4993782;28;20074;-50
2023/08/15 10:26:01;;;;;;;6.00;3.20;;;30.70;95.80;;;;;;4994586;28;20030;-50
2023/08/15 10:28:29;;;;;;;6.18;2.97;;;30.90;96.00;;;;;;4994605;28;20539;-51
2023/08/15 10:30:56;;;;;;;10.55;3.05;;;30.80;95.80;;;;;;4994326;28;20030;-53
2023/08/15 10:33:28;;;;;;;10.20;3.47;;;31.00;95.90;;;;;;4993769;28;20041;-52
2023/08/15 10:35:54;;;;;;;5.75;3.08;;;31.00;95.80;;;;;;4993848;28;20029;-51
2023/08/15 10:38:27;;;;;;;5.75;3.08;;;30.90;96.10;;;;;;4993364;28;20034;-50
2023/08/15 10:41:00;;;;;;;6.15;2.70;;;31.00;96.00;;;;;;4996235;28;20053;-50
2023/08/15 10:43:27;;;;;;;4.97;3.35;;;31.00;95.50;;;;;;4991954;28;20374;-52
2023/08/15 10:46:04;;;;;;;9.10;3.53;;;31.10;95.60;;;;;;4989343;28;20117;-53
2023/08/15 10:48:42;;;;;;;3.60;2.40;;;31.30;95.90;;;;;;4989422;28;20034;-52
2023/08/15 10:51:24;;;;;;;5.05;3.10;;;31.00;95.30;;;;;;4988361;28;20038;-53
2023/08/15 10:53:55;;;;;;;4.25;3.17;;;31.30;95.60;;;;;;4972283;28;20034;-54
2023/08/15 10:56:31;;;;;;;5.47;3.33;;;31.40;95.80;;;;;;4978365;28;20405;-50
2023/08/15 10:58:58;;;;;;;7.25;3.80;;;31.40;95.80;;;;;;4989422;28;20279;-53
2023/08/15 11:01:27;;;;;;;4.30;3.53;;;31.40;96.30;;;;;;4998246;28;20117;-51
2023/08/15 11:03:56;;;;;;;9.13;3.95;;;31.20;96.40;;;;;;4991211;28;20030;-53
2023/08/15 11:06:22;;;;;;;5.75;3.35;;;31.10;96.30;;;;;;4991437;28;20474;-50
2023/08/15 11:08:49;;;;;;;3.55;3.13;;;31.20;96.50;;;;;;4991183;28;20054;-53
2023/08/15 11:11:16;;;;;;;4.30;3.38;;;31.00;96.50;;;;;;4989678;28;20041;-54
2023/08/15 11:13:49;;;;;;;4.28;3.28;;;30.80;96.70;;;;;;4991137;28;20077;-53
2023/08/15 11:16:17;;;;;;;6.47;3.85;;;31.20;96.80;;;;;;4990260;28;20109;-54
2023/08/15 11:18:44;;;;;;;5.93;3.97;;;31.00;96.50;;;;;;4980477;28;20056;-53
2023/08/15 11:21:13;;;;;;;3.72;2.42;;;31.10;96.60;;;;;;5005796;28;20129;-54
2023/08/15 11:23:40;;;;;;;7.28;4.03;;;30.30;96.50;;;;;;4991059;28;20038;-53
2023/08/15 11:26:07;;;;;;;4.13;2.90;;;;;;;;;;5008861;28;20038;-54
2023/08/15 11:28:34;;;;;;;3.08;2.53;;;30.40;96.40;;;;;;5009601;28;20429;-52
2023/08/15 11:31:02;;;;;;;6.60;4.63;;;30.40;97.00;;;;;;5009043;28;20045;-52
2023/08/15 11:33:31;;;;;;;3.75;2.95;;;30.50;96.30;;;;;;5009604;28;20034;-54
2023/08/15 11:36:06;;;;;;;7.82;4.05;;;29.90;96.80;;;;;;4993678;28;20064;-51
2023/08/15 11:38:36;;;;;;;7.43;4.20;;;;;;;;;;5012211;28;20038;-54
2023/08/15 11:41:04;;;;;;;4.13;2.90;;;29.60;99.80;;;;;;5012974;28;20046;-52
2023/08/15 11:43:30;;;;;;;4.25;2.85;;;29.20;96.60;;;;;;5011517;28;20076;-50
2023/08/15 11:45:56;;;;;;;5.80;3.70;;;29.10;96.90;;;;;;5011925;28;20030;-53
2023/08/15 11:48:22;;;;;;;5.38;3.22;;;29.20;97.40;;;;;;5012816;28;20068;-53
2023/08/15 11:50:50;;;;;;;4.47;3.22;;;29.00;97.20;;;;;;5012478;28;20040;-51
2023/08/15 11:53:17;;;;;;;5.07;3.95;;;29.00;97.10;;;;;;4996554;28;20125;-50
2023/08/15 11:55:45;;;;;;;5.97;4.30;;;28.70;97.30;;;;;;5012883;28;20541;-53
2023/08/15 11:58:40;;;;;;;6.03;3.40;;;28.80;97.80;;;;;;4994664;28;20034;-50
2023/08/15 12:01:11;;;;;;;12.02;4.68;;;28.80;98.30;;;;;;4995568;28;20028;-51
2023/08/15 12:03:38;;;;;;;14.27;5.07;;;28.70;98.10;;;;;;4995923;28;20050;-52
2023/08/15 12:06:11;;;;;;;6.93;4.18;;;28.70;98.70;;;;;;4995151;28;20088;-52
2023/08/15 12:08:39;;;;;;;12.32;4.13;;;28.30;98.70;;;;;;4995324;28;20180;-53
2023/08/15 12:11:07;;;;;;;18.42;4.55;;;28.10;98.70;;;;;;4993460;28;20030;-53
2023/08/15 12:13:41;;;;;;;9.55;4.07;;;28.30;99.10;;;;;;4993871;28;20030;-50
2023/08/15 12:16:08;;;;;;;7.10;3.78;;;27.90;99.00;;;;;;4995335;28;20054;-53
2023/08/15 12:18:35;;;;;;;5.68;3.45;;;27.40;99.20;;;;;;4994256;28;20034;-53
2023/08/15 12:21:03;;;;;;;7.00;4.00;;;27.20;99.60;;;;;;4992856;28;20042;-53
2023/08/15 12:23:29;;;;;;;5.57;3.80;;;27.20;99.80;;;;;;4995151;28;20035;-50
2023/08/15 12:25:55;;;;;;;12.88;4.55;;;27.20;99.80;;;;;;5009387;28;20049;-49
2023/08/15 12:28:21;;;;;;;5.90;4.15;;;27.10;99.90;;;;;;5007112;28;20049;-49
2023/08/15 12:30:47;;;;;;;4.05;3.65;;;27.10;99.90;;;;;;5006519;28;20493;-52
2023/08/15 12:33:13;;;;;;;5.07;4.05;;;26.90;99.90;;;;;;4982673;28;20041;-52
2023/08/15 12:35:39;;;;;;;4.22;3.55;;;27.00;99.90;;;;;;4994963;28;20026;-51
2023/08/15 12:38:05;;;;;;;4.07;3.20;;;27.00;99.90;;;;;;4991502;28;20030;-52
2023/08/15 12:40:31;;;;;;;9.90;4.00;;;26.90;99.90;;;;;;4994127;28;20395;-53
2023/08/15 12:42:57;;;;;;;6.70;4.05;;;26.70;99.90;;;;;;4995813;28;20410;-51
2023/08/15 12:45:23;;;;;;;4.45;3.60;;;26.70;99.90;;;;;;4992578;28;20034;-50
2023/08/15 12:47:49;;;;;;;5.10;4.03;;;26.80;99.90;;;;;;4991299;28;20441;-52
2023/08/15 12:50:15;;;;;;;5.90;3.80;;;26.80;99.90;;;;;;4995132;28;20482;-55
2023/08/15 12:52:48;;;;;;;7.50;4.00;;;26.60;99.90;;;;;;4993896;28;20073;-56
2023/08/15 12:55:38;;;;;;;5.70;3.70;;;26.60;99.90;;;;;;4994217;28;20046;-54